createdAt,value
2018-09-19T00:03:22.847Z,13.45
2018-09-19T00:18:27.022Z,13.16
2018-09-19T00:33:31.107Z,12.94
2018-09-19T00:48:35.261Z,12.88
2018-09-19T01:03:39.444Z,12.97
2018-09-19T01:18:43.670Z,12.92
2018-09-19T01:33:47.787Z,12.55
2018-09-19T01:48:52.034Z,12.41
2018-09-19T02:03:55.928Z,12.43
2018-09-19T02:19:03.833Z,12.22
2018-09-19T02:34:08.169Z,12.07
2018-09-19T02:49:14.576Z,11.76
2018-09-19T03:04:18.764Z,11.60
2018-09-19T03:19:24.965Z,11.36
2018-09-19T03:34:28.806Z,11.17
2018-09-19T03:49:32.669Z,10.94
2018-09-19T04:04:36.935Z,10.83
2018-09-19T04:19:41.377Z,10.94
2018-09-19T04:34:45.456Z,12.74
2018-09-19T04:49:49.564Z,14.90
2018-09-19T05:04:53.569Z,16.70
2018-09-19T05:19:57.866Z,19.45
2018-09-19T05:35:02.059Z,21.44
2018-09-19T05:50:09.779Z,22.81
2018-09-19T06:05:13.604Z,23.57
2018-09-19T06:20:17.398Z,23.22
2018-09-19T06:35:21.842Z,25.21
2018-09-19T06:50:25.663Z,23.88
2018-09-19T07:05:30.498Z,25.22
2018-09-19T07:20:34.318Z,25.71
2018-09-19T07:35:38.438Z,27.76
2018-09-19T07:50:42.237Z,29.38
2018-09-19T08:05:46.049Z,29.25
2018-09-19T08:20:49.897Z,29.38
2018-09-19T08:35:53.740Z,27.07
2018-09-19T08:50:57.583Z,27.49
2018-09-19T09:06:02.329Z,27.49
2018-09-19T09:21:06.716Z,27.10
2018-09-19T09:36:10.541Z,26.90
2018-09-19T09:51:14.378Z,25.93
2018-09-19T10:06:19.125Z,25.85
2018-09-19T10:21:22.971Z,25.91
2018-09-19T10:36:26.784Z,26.19
2018-09-19T10:51:30.669Z,25.89
2018-09-19T11:06:36.810Z,25.89
2018-09-19T11:21:40.643Z,25.92
2018-09-19T11:36:44.435Z,26.49
2018-09-19T11:51:48.209Z,25.41
2018-09-19T12:06:52.493Z,25.99
2018-09-19T12:21:56.274Z,26.13
2018-09-19T12:37:00.104Z,25.42
2018-09-19T12:52:04.378Z,25.11
2018-09-19T13:07:08.363Z,25.56
2018-09-19T13:22:12.225Z,25.34
2018-09-19T13:37:16.068Z,25.46
2018-09-19T13:52:19.875Z,24.81
2018-09-19T14:07:23.701Z,24.63
2018-09-19T14:22:28.420Z,24.28
2018-09-19T14:37:32.607Z,24.21
2018-09-19T14:52:36.926Z,24.03
2018-09-19T15:07:41.108Z,23.49
2018-09-19T15:22:45.977Z,22.69
2018-09-19T15:37:52.313Z,22.17
2018-09-19T15:52:58.345Z,21.49
2018-09-19T16:08:02.482Z,20.75
2018-09-19T16:23:06.814Z,20.12
2018-09-19T16:38:10.731Z,19.32
2018-09-19T16:53:15.129Z,19.05
2018-09-19T17:08:18.972Z,19.13
2018-09-19T17:23:23.111Z,19.08
2018-09-19T17:38:27.210Z,18.41
2018-09-19T17:53:33.760Z,17.93
2018-09-19T18:08:37.706Z,17.99
2018-09-19T18:23:43.311Z,18.38
2018-09-19T18:38:47.195Z,18.37
2018-09-19T18:53:51.467Z,17.76
2018-09-19T19:08:55.432Z,18.08
2018-09-19T19:23:59.284Z,17.11
2018-09-19T19:39:03.196Z,16.53
2018-09-19T19:54:07.440Z,16.27
2018-09-19T20:09:11.278Z,15.80
2018-09-19T20:24:46.035Z,15.39
2018-09-19T20:40:19.937Z,15.69
2018-09-19T20:55:49.457Z,15.59
2018-09-19T21:10:53.535Z,15.17
2018-09-19T21:25:58.592Z,14.53
2018-09-19T21:41:02.440Z,14.39
2018-09-19T21:56:37.051Z,13.87
2018-09-19T22:12:11.964Z,13.68
2018-09-19T22:27:46.648Z,13.55
2018-09-19T22:43:21.351Z,12.90
2018-09-19T22:58:55.769Z,12.54
2018-09-19T23:14:31.424Z,12.46
2018-09-19T23:30:05.650Z,11.97
2018-09-19T23:45:40.569Z,12.40
